Time;durP1;ratioP1;P1;durP2;ratioP2;P2;SDS_P1;SDS_P2;PMS_P1;PMS_P2;Temp;Humidity;BMP_temperature;BMP_pressure;BME280_temperature;BME280_humidity;BME280_pressure;Samples;Min_cycle;Max_cycle;Signal;HPM_P1;HPM_P2
2021/09/12 00:18:16;;;;;;;4.53;2.62;;;;;;;;;;4213777;28;20126;-66
2021/09/12 00:20:43;;;;;;;6.03;2.87;;;;;;;;;;4149323;34;20130;-66
2021/09/12 00:23:08;;;;;;;2.92;2.10;;;;;;;;;;4149553;34;20631;-69
2021/09/12 00:25:34;;;;;;;4.12;2.33;;;;;;;;;;4149948;34;20131;-68
2021/09/12 00:28:00;;;;;;;4.80;1.90;;;;;;;;;;4149540;34;20103;-68
2021/09/12 00:30:26;;;;;;;2.67;1.80;;;;;;;;;;4149905;34;20226;-68
2021/09/12 00:32:52;;;;;;;4.72;2.00;;;;;;;;;;4149912;34;20111;-68
2021/09/12 00:35:17;;;;;;;2.20;2.00;;;;;;;;;;4149439;34;20163;-68
2021/09/12 00:37:45;;;;;;;2.67;1.65;;;;;;;;;;4149838;34;20126;-68
2021/09/12 00:40:11;;;;;;;5.18;1.80;;;;;;;;;;4149513;34;20102;-68
2021/09/12 00:42:37;;;;;;;1.95;1.77;;;;;;;;;;4149613;34;20123;-68
2021/09/12 00:45:03;;;;;;;5.68;2.20;;;;;;;;;;4149696;34;20141;-68
2021/09/12 00:47:29;;;;;;;3.30;2.20;;;;;;;;;;4149757;34;20102;-68
2021/09/12 00:49:55;;;;;;;9.20;2.53;;;;;;;;;;4150054;34;20561;-68
2021/09/12 00:52:21;;;;;;;3.10;2.20;;;;;;;;;;4149978;34;20508;-68
2021/09/12 00:54:48;;;;;;;3.58;2.20;;;;;;;;;;4148490;34;20134;-68
2021/09/12 00:57:13;;;;;;;4.87;2.28;;;;;;;;;;4148192;34;20115;-68
2021/09/12 00:59:40;;;;;;;4.18;2.10;;;;;;;;;;4148032;34;20206;-68
2021/09/12 01:02:07;;;;;;;3.03;2.37;;;;;;;;;;4149231;34;20103;-68
2021/09/12 01:04:33;;;;;;;3.25;2.28;;;;;;;;;;4147953;34;20318;-68
2021/09/12 01:07:04;;;;;;;2.37;1.90;;;;;;;;;;4149044;34;20123;-67
2021/09/12 01:09:30;;;;;;;3.08;2.22;;;;;;;;;;4149304;34;20206;-68
2021/09/12 01:11:59;;;;;;;4.97;2.30;;;;;;;;;;4149217;34;20120;-69
2021/09/12 01:14:25;;;;;;;4.90;2.25;;;;;;;;;;4149201;34;20556;-68
2021/09/12 01:16:51;;;;;;;4.43;2.47;;;;;;;;;;4148849;34;20446;-68
2021/09/12 01:19:17;;;;;;;2.72;1.80;;;;;;;;;;4149026;34;20123;-68
2021/09/12 01:21:43;;;;;;;2.97;2.42;;;;;;;;;;4149181;34;20110;-68
2021/09/12 01:24:09;;;;;;;2.25;2.05;;;;;;;;;;4125351;34;20142;-69
2021/09/12 01:26:34;;;;;;;2.83;2.17;;;;;;;;;;4149020;34;20130;-68
2021/09/12 01:29:00;;;;;;;2.87;2.00;;;;;;;;;;4148909;34;20758;-68
2021/09/12 01:31:29;;;;;;;5.90;2.42;;;;;;;;;;4149853;34;20179;-68
2021/09/12 01:33:56;;;;;;;3.72;2.70;;;;;;;;;;4149634;34;20211;-68
2021/09/12 01:36:22;;;;;;;2.97;2.22;;;;;;;;;;4138462;34;20210;-68
2021/09/12 01:38:47;;;;;;;4.82;2.22;;;;;;;;;;4151015;34;20119;-68
2021/09/12 01:41:13;;;;;;;4.47;2.12;;;;;;;;;;4151004;34;20115;-68
2021/09/12 01:43:57;;;;;;;3.03;2.00;;;;;;;;;;4138570;34;20199;-69
2021/09/12 01:46:23;;;;;;;3.12;2.20;;;;;;;;;;4138788;34;20102;-68
2021/09/12 01:48:49;;;;;;;2.90;2.25;;;;;;;;;;4151125;34;20105;-69
2021/09/12 01:51:15;;;;;;;2.90;2.42;;;;;;;;;;4151009;34;20224;-69
2021/09/12 01:53:41;;;;;;;2.15;1.83;;;;;;;;;;4150865;34;20122;-68
2021/09/12 01:56:07;;;;;;;2.10;1.90;;;;;;;;;;4150551;34;20134;-68
2021/09/12 01:58:32;;;;;;;2.58;2.33;;;;;;;;;;4150790;34;20139;-68
2021/09/12 02:00:58;;;;;;;5.10;2.50;;;;;;;;;;4149312;34;20183;-68
2021/09/12 02:03:24;;;;;;;4.32;2.40;;;;;;;;;;4150577;34;20091;-68
2021/09/12 02:05:50;;;;;;;7.20;2.20;;;;;;;;;;4150703;34;20440;-68
2021/09/12 02:08:16;;;;;;;5.85;2.50;;;;;;;;;;4150762;34;20529;-68
2021/09/12 02:10:42;;;;;;;2.55;2.30;;;;;;;;;;4150828;34;20116;-68
2021/09/12 02:13:09;;;;;;;7.45;2.47;;;;;;;;;;4149342;34;20227;-68
2021/09/12 02:15:35;;;;;;;5.55;2.25;;;;;;;;;;4150961;34;20114;-68
2021/09/12 02:18:01;;;;;;;4.30;2.25;;;;;;;;;;4150610;34;20115;-68
2021/09/12 02:20:27;;;;;;;6.15;2.30;;;;;;;;;;4150629;34;20220;-67
2021/09/12 02:22:52;;;;;;;5.72;2.30;;;;;;;;;;4150800;34;20120;-68
2021/09/12 02:25:18;;;;;;;2.72;2.10;;;;;;;;;;4150706;34;20543;-67
2021/09/12 02:27:44;;;;;;;4.43;2.70;;;;;;;;;;4149384;34;20210;-68
2021/09/12 02:30:10;;;;;;;3.10;2.12;;;;;;;;;;4150700;34;20605;-68
2021/09/12 02:32:36;;;;;;;3.08;2.58;;;;;;;;;;4150524;34;20111;-68
2021/09/12 02:35:02;;;;;;;4.50;2.28;;;;;;;;;;4150801;34;20130;-68
2021/09/12 02:37:28;;;;;;;4.65;2.12;;;;;;;;;;4150712;34;20444;-68
2021/09/12 02:39:54;;;;;;;3.33;2.30;;;;;;;;;;4150700;34;20107;-68
2021/09/12 02:42:20;;;;;;;5.25;2.28;;;;;;;;;;4150107;34;20114;-68
2021/09/12 02:44:45;;;;;;;2.58;1.95;;;;;;;;;;4150585;34;20129;-68
2021/09/12 02:47:11;;;;;;;2.67;1.95;;;;;;;;;;4150544;34;20495;-68
2021/09/12 02:49:37;;;;;;;2.75;2.40;;;;;;;;;;4150565;34;20528;-68
2021/09/12 02:52:03;;;;;;;2.40;1.80;;;;;;;;;;4150532;34;20673;-68
2021/09/12 02:54:29;;;;;;;2.20;2.00;;;;;;;;;;4150450;34;20111;-68
2021/09/12 02:56:55;;;;;;;2.55;2.10;;;;;;;;;;4150382;34;20524;-68
2021/09/12 02:59:21;;;;;;;4.30;2.50;;;;;;;;;;4150516;34;20444;-68
2021/09/12 03:01:47;;;;;;;2.50;2.30;;;;;;;;;;4150509;34;20161;-68
2021/09/12 03:04:13;;;;;;;3.80;2.53;;;;;;;;;;4150319;34;20141;-68
2021/09/12 03:06:38;;;;;;;2.97;1.92;;;;;;;;;;4148883;34;20546;-68
2021/09/12 03:09:04;;;;;;;3.12;1.85;;;;;;;;;;4150542;34;20554;-67
2021/09/12 03:11:30;;;;;;;8.88;2.00;;;;;;;;;;4150563;34;20114;-68
2021/09/12 03:13:56;;;;;;;4.25;2.28;;;;;;;;;;4150553;34;20103;-68
2021/09/12 03:16:23;;;;;;;5.87;2.40;;;;;;;;;;4150180;34;20149;-67
2021/09/12 03:18:49;;;;;;;5.47;2.50;;;;;;;;;;4148849;34;20139;-68
2021/09/12 03:21:15;;;;;;;4.57;2.30;;;;;;;;;;4148857;34;20126;-68
2021/09/12 03:23:41;;;;;;;3.78;2.17;;;;;;;;;;4150148;34;20134;-68
2021/09/12 03:26:07;;;;;;;5.32;2.70;;;;;;;;;;4150439;34;20268;-68
2021/09/12 03:28:33;;;;;;;3.35;2.55;;;;;;;;;;4150109;34;20110;-68
2021/09/12 03:30:59;;;;;;;6.65;2.08;;;;;;;;;;4150179;34;20192;-68
2021/09/12 03:33:24;;;;;;;3.10;2.40;;;;;;;;;;4150020;34;20211;-67
2021/09/12 03:35:50;;;;;;;7.18;2.47;;;;;;;;;;4150342;34;20224;-68
2021/09/12 03:38:16;;;;;;;2.20;1.95;;;;;;;;;;4149954;34;20174;-68
2021/09/12 03:40:42;;;;;;;3.67;2.00;;;;;;;;;;4148614;34;20136;-67
2021/09/12 03:43:08;;;;;;;2.62;2.10;;;;;;;;;;4148612;34;20127;-68
2021/09/12 03:45:34;;;;;;;4.97;2.30;;;;;;;;;;4150333;34;20134;-67
2021/09/12 03:48:00;;;;;;;2.67;2.05;;;;;;;;;;4149869;34;20104;-68
2021/09/12 03:50:26;;;;;;;2.78;2.08;;;;;;;;;;4150019;34;20096;-68
2021/09/12 03:52:53;;;;;;;3.12;2.20;;;;;;;;;;4150133;34;20489;-68
2021/09/12 03:55:19;;;;;;;2.87;2.08;;;;;;;;;;4148039;34;20532;-68
2021/09/12 03:57:45;;;;;;;5.60;2.22;;;;;;;;;;4148585;34;20104;-68
2021/09/12 04:00:11;;;;;;;4.05;2.20;;;;;;;;;;4149829;34;20191;-68
2021/09/12 04:02:37;;;;;;;2.17;1.98;;;;;;;;;;4149696;34;20129;-68
2021/09/12 04:05:03;;;;;;;3.65;1.98;;;;;;;;;;4149892;34;20643;-68
2021/09/12 04:07:29;;;;;;;2.12;1.83;;;;;;;;;;4148483;34;20146;-68
2021/09/12 04:09:55;;;;;;;5.25;1.98;;;;;;;;;;4149878;34;20107;-68
2021/09/12 04:12:21;;;;;;;4.97;2.45;;;;;;;;;;4149557;34;20219;-67
2021/09/12 04:14:47;;;;;;;4.05;1.83;;;;;;;;;;4149892;34;20126;-68
2021/09/12 04:17:12;;;;;;;5.30;2.08;;;;;;;;;;4149686;34;20244;-68
2021/09/12 04:19:38;;;;;;;3.62;2.10;;;;;;;;;;4149896;34;20110;-68
2021/09/12 04:22:04;;;;;;;1.67;1.58;;;;;;;;;;4149534;34;20215;-68
2021/09/12 04:24:30;;;;;;;2.70;2.00;;;;;;;;;;4149729;34;20122;-68
2021/09/12 04:26:56;;;;;;;5.70;2.30;;;;;;;;;;4149560;34;20209;-68
2021/09/12 04:29:22;;;;;;;2.80;2.30;;;;;;;;;;4149498;34;20122;-67
2021/09/12 04:31:48;;;;;;;5.47;2.37;;;;;;;;;;4149846;34;20464;-68
2021/09/12 04:34:14;;;;;;;5.12;2.20;;;;;;;;;;4148045;34;20111;-68
2021/09/12 04:36:40;;;;;;;9.95;2.90;;;;;;;;;;4149785;34;20158;-68
2021/09/12 04:39:06;;;;;;;5.60;1.95;;;;;;;;;;4149448;34;20115;-67
2021/09/12 04:41:32;;;;;;;4.70;2.55;;;;;;;;;;4149405;34;20194;-68
2021/09/12 04:43:57;;;;;;;4.32;2.30;;;;;;;;;;4149356;34;20100;-67
2021/09/12 04:46:23;;;;;;;4.00;2.20;;;;;;;;;;4149621;34;20146;-68
2021/09/12 04:48:49;;;;;;;5.35;2.20;;;;;;;;;;4149367;34;20192;-68
2021/09/12 04:51:15;;;;;;;5.78;2.30;;;;;;;;;;4149448;34;20174;-68
2021/09/12 04:53:41;;;;;;;3.22;2.20;;;;;;;;;;4149535;34;20134;-68
2021/09/12 04:56:07;;;;;;;6.05;1.90;;;;;;;;;;4148105;34;20139;-68
2021/09/12 04:58:32;;;;;;;3.08;2.10;;;;;;;;;;4149504;34;20104;-68
2021/09/12 05:01:00;;;;;;;3.83;2.33;;;;;;;;;;4149151;34;20529;-68
2021/09/12 05:03:26;;;;;;;2.12;1.87;;;;;;;;;;4149259;34;20123;-68
2021/09/12 05:05:52;;;;;;;2.75;2.12;;;;;;;;;;4149371;34;20204;-68
2021/09/12 05:08:18;;;;;;;4.30;2.40;;;;;;;;;;4151316;34;20134;-68
2021/09/12 05:10:44;;;;;;;5.68;2.28;;;;;;;;;;4151228;34;20555;-68
2021/09/12 05:13:10;;;;;;;2.97;2.20;;;;;;;;;;4151205;34;20099;-68
2021/09/12 05:15:35;;;;;;;4.62;2.20;;;;;;;;;;4151265;34;20215;-68
2021/09/12 05:18:01;;;;;;;2.92;1.87;;;;;;;;;;4149712;34;20150;-67
2021/09/12 05:20:27;;;;;;;2.75;1.60;;;;;;;;;;4151308;34;20099;-68
2021/09/12 05:22:53;;;;;;;3.55;2.25;;;;;;;;;;4149993;34;20156;-68
2021/09/12 05:25:19;;;;;;;5.85;2.72;;;;;;;;;;4151367;34;20645;-68
2021/09/12 05:27:45;;;;;;;8.52;4.22;;;;;;;;;;4151202;34;20146;-68
2021/09/12 05:30:11;;;;;;;3.28;2.20;;;;;;;;;;4151143;34;20515;-68
2021/09/12 05:32:36;;;;;;;4.25;2.58;;;;;;;;;;4151181;34;20122;-68
2021/09/12 05:35:03;;;;;;;7.65;2.50;;;;;;;;;;4151070;34;20119;-68
2021/09/12 05:37:29;;;;;;;4.57;2.17;;;;;;;;;;4151013;34;20448;-68
2021/09/12 05:39:55;;;;;;;1.95;1.73;;;;;;;;;;4151086;34;20159;-68
2021/09/12 05:42:20;;;;;;;5.00;2.10;;;;;;;;;;4150988;34;20138;-66
2021/09/12 05:44:46;;;;;;;3.35;1.90;;;;;;;;;;4151037;34;20130;-66
2021/09/12 05:47:12;;;;;;;2.47;1.90;;;;;;;;;;4151038;34;20110;-68
2021/09/12 05:49:38;;;;;;;7.07;2.20;;;;;;;;;;4151084;34;20141;-68
2021/09/12 05:52:04;;;;;;;3.80;2.95;;;;;;;;;;4151138;34;20119;-68
2021/09/12 05:54:30;;;;;;;7.00;2.70;;;;;;;;;;4150954;34;20188;-68
2021/09/12 05:56:56;;;;;;;3.65;2.60;;;;;;;;;;4150941;34;20106;-68
2021/09/12 05:59:22;;;;;;;6.03;2.62;;;;;;;;;;4150882;34;20087;-68
2021/09/12 06:01:48;;;;;;;6.43;2.90;;;;;;;;;;4150889;34;20122;-68
2021/09/12 06:04:14;;;;;;;4.60;3.03;;;;;;;;;;4150752;34;20122;-68
2021/09/12 06:06:40;;;;;;;3.22;2.40;;;;;;;;;;4150726;34;20114;-67
2021/09/12 06:09:06;;;;;;;4.18;3.05;;;;;;;;;;4150682;34;20138;-67
2021/09/12 06:11:32;;;;;;;3.30;2.20;;;;;;;;;;4150844;34;20476;-67
2021/09/12 06:13:57;;;;;;;3.40;2.62;;;;;;;;;;4150695;34;20142;-67
2021/09/12 06:16:23;;;;;;;5.43;2.53;;;;;;;;;;4150685;34;20117;-67
2021/09/12 06:18:49;;;;;;;4.15;2.62;;;;;;;;;;4150412;34;20127;-67
2021/09/12 06:21:15;;;;;;;3.62;2.42;;;;;;;;;;4150538;34;20182;-68
2021/09/12 06:23:41;;;;;;;2.62;1.90;;;;;;;;;;4150778;34;20610;-68
2021/09/12 06:26:07;;;;;;;2.85;2.20;;;;;;;;;;4150585;34;20134;-67
2021/09/12 06:28:33;;;;;;;3.47;2.53;;;;;;;;;;4150727;34;20507;-67
2021/09/12 06:30:59;;;;;;;2.97;2.20;;;;;;;;;;4150829;34;20119;-67
2021/09/12 06:33:26;;;;;;;2.78;2.20;;;;;;;;;;4150515;34;20521;-68
2021/09/12 06:35:51;;;;;;;4.45;2.40;;;;;;;;;;4150570;34;20114;-68
2021/09/12 06:38:17;;;;;;;6.37;2.80;;;;;;;;;;4150482;34;20218;-67
2021/09/12 06:40:43;;;;;;;6.25;2.25;;;;;;;;;;4150424;34;20542;-68
2021/09/12 06:43:09;;;;;;;6.25;2.30;;;;;;;;;;4149278;34;20569;-68
2021/09/12 06:45:35;;;;;;;5.55;2.40;;;;;;;;;;4150516;34;20198;-68
2021/09/12 06:48:01;;;;;;;6.32;2.90;;;;;;;;;;4150572;34;20520;-68
2021/09/12 06:50:29;;;;;;;6.12;2.30;;;;;;;;;;4150508;34;20131;-67
2021/09/12 06:52:54;;;;;;;3.42;2.50;;;;;;;;;;4150383;34;20217;-67
2021/09/12 06:55:20;;;;;;;7.43;3.30;;;;;;;;;;4150481;34;20125;-67
2021/09/12 06:57:46;;;;;;;3.30;2.25;;;;;;;;;;4150438;34;20135;-67
2021/09/12 07:00:12;;;;;;;4.40;2.50;;;;;;;;;;4150365;34;20554;-67
2021/09/12 07:02:38;;;;;;;7.00;2.17;;;;;;;;;;4150693;34;20104;-67
2021/09/12 07:05:05;;;;;;;4.18;2.55;;;;;;;;;;4148835;34;20185;-67
2021/09/12 07:07:31;;;;;;;2.85;2.25;;;;;;;;;;4150447;34;20217;-67
2021/09/12 07:09:57;;;;;;;2.85;2.15;;;;;;;;;;4150233;34;20528;-67
2021/09/12 07:12:23;;;;;;;3.37;2.40;;;;;;;;;;4150281;34;20453;-67
2021/09/12 07:14:49;;;;;;;2.60;2.00;;;;;;;;;;4150078;34;20591;-68
2021/09/12 07:17:15;;;;;;;2.12;1.80;;;;;;;;;;4148830;34;20187;-68
2021/09/12 07:19:40;;;;;;;3.35;2.40;;;;;;;;;;4150178;34;20104;-67
2021/09/12 07:22:06;;;;;;;5.65;2.33;;;;;;;;;;4150074;34;20209;-67
2021/09/12 07:24:32;;;;;;;8.52;2.40;;;;;;;;;;4150419;34;20134;-67
2021/09/12 07:26:58;;;;;;;4.15;2.53;;;;;;;;;;4150371;34;20119;-67
2021/09/12 07:29:24;;;;;;;2.60;2.30;;;;;;;;;;4149335;34;20130;-67
2021/09/12 07:31:51;;;;;;;3.40;2.60;;;;;;;;;;4150135;34;20142;-67
2021/09/12 07:34:17;;;;;;;2.87;2.40;;;;;;;;;;4150104;34;20126;-67
2021/09/12 07:36:43;;;;;;;6.37;2.28;;;;;;;;;;4148650;34;20123;-67
2021/09/12 07:39:09;;;;;;;2.42;1.80;;;;;;;;;;4150013;34;20130;-67
2021/09/12 07:41:35;;;;;;;2.33;2.08;;;;;;;;;;4149913;34;20210;-67
2021/09/12 07:44:01;;;;;;;4.12;2.30;;;;;;;;;;4148944;34;20413;-67
2021/09/12 07:46:27;;;;;;;5.20;2.30;;;;;;;;;;4150039;34;20106;-67
2021/09/12 07:48:53;;;;;;;3.72;2.17;;;;;;;;;;4150035;34;20095;-67
2021/09/12 07:51:18;;;;;;;4.25;3.00;;;;;;;;;;4149941;34;20134;-67
2021/09/12 07:53:44;;;;;;;7.30;2.80;;;;;;;;;;4150669;34;20119;-67
2021/09/12 07:56:10;;;;;;;4.97;2.42;;;;;;;;;;4149947;34;20133;-67
2021/09/12 07:58:36;;;;;;;8.40;3.37;;;;;;;;;;4149943;34;20479;-67
2021/09/12 08:01:02;;;;;;;3.05;2.65;;;;;;;;;;4149772;34;20299;-67
2021/09/12 08:03:28;;;;;;;3.42;2.67;;;;;;;;;;4149873;34;20871;-67
2021/09/12 08:05:54;;;;;;;3.25;2.22;;;;;;;;;;4149909;34;20110;-66
2021/09/12 08:08:20;;;;;;;6.28;2.28;;;;;;;;;;4149970;34;20118;-68
2021/09/12 08:10:46;;;;;;;2.87;2.50;;;;;;;;;;4149811;34;20468;-67
2021/09/12 08:13:12;;;;;;;3.65;2.50;;;;;;;;;;4149792;34;20095;-67
2021/09/12 08:15:38;;;;;;;2.72;2.12;;;;;;;;;;4149669;34;20121;-67
2021/09/12 08:18:05;;;;;;;4.20;2.42;;;;;;;;;;4149770;34;20131;-67
2021/09/12 08:20:31;;;;;;;3.08;2.15;;;;;;;;;;4149554;34;20106;-67
2021/09/12 08:22:57;;;;;;;3.17;2.08;;;;;;;;;;4148684;34;20534;-67
2021/09/12 08:25:24;;;;;;;3.95;2.33;;;;;;;;;;4149769;34;20103;-66
2021/09/12 08:27:49;;;;;;;3.45;2.28;;;;;;;;;;4149551;34;20123;-67
2021/09/12 08:30:16;;;;;;;3.00;2.33;;;;;;;;;;4148144;34;20186;-67
2021/09/12 08:32:42;;;;;;;6.18;2.70;;;;;;;;;;4149571;34;20138;-67
2021/09/12 08:35:08;;;;;;;3.22;2.30;;;;;;;;;;4149592;34;20204;-67
2021/09/12 08:37:34;;;;;;;4.28;2.10;;;;;;;;;;4148323;34;20162;-67
2021/09/12 08:40:00;;;;;;;3.40;2.28;;;;;;;;;;4149915;34;20099;-67
2021/09/12 08:42:26;;;;;;;3.00;2.08;;;;;;;;;;4150271;34;20115;-68
2021/09/12 08:44:52;;;;;;;1.65;1.33;;;;;;;;;;4151610;34;20538;-67
2021/09/12 08:47:18;;;;;;;4.90;2.12;;;;;;;;;;4151872;34;20528;-67
2021/09/12 08:49:45;;;;;;;6.95;2.37;;;;;;;;;;4151939;34;20100;-67
2021/09/12 08:52:11;;;;;;;7.45;2.37;;;;;;;;;;4151881;34;20095;-67
2021/09/12 08:54:37;;;;;;;5.93;3.53;;;;;;;;;;4151590;34;20165;-68
2021/09/12 08:57:03;;;;;;;8.10;4.43;;;;;;;;;;4149949;34;20216;-68
2021/09/12 08:59:31;;;;;;;7.60;3.40;;;;;;;;;;4151600;34;20122;-67
2021/09/12 09:01:58;;;;;;;5.95;3.12;;;;;;;;;;4151716;34;20606;-68
2021/09/12 09:04:28;;;;;;;6.50;4.35;;;;;;;;;;4151645;34;20527;-68
2021/09/12 09:06:59;;;;;;;7.90;3.03;;;;;;;;;;4151391;34;20100;-68
2021/09/12 09:09:45;;;;;;;4.62;3.22;;;;;;;;;;4151381;34;20606;-67
2021/09/12 09:12:24;;;;;;;;;;;;;;;;;;4151699;34;20107;-67
2021/09/12 09:15:16;;;;;;;14.77;5.45;;;;;;;;;;4151369;34;20091;-67
2021/09/12 09:17:48;;;;;;;2.35;1.92;;;;;;;;;;4149719;34;20133;-67
2021/09/12 09:20:18;;;;;;;6.47;2.50;;;;;;;;;;4151384;34;20514;-67
2021/09/12 09:22:46;;;;;;;4.25;3.08;;;;;;;;;;4151089;34;20142;-68
2021/09/12 09:25:17;;;;;;;4.20;2.60;;;;;;;;;;4150662;34;20153;-71
2021/09/12 09:27:54;;;;;;;4.72;3.35;;;;;;;;;;4149032;34;20532;-72
2021/09/12 09:30:20;;;;;;;5.30;2.90;;;;;;;;;;4143889;34;20146;-72
2021/09/12 09:32:46;;;;;;;5.32;2.80;;;;;;;;;;4149953;34;20133;-73
2021/09/12 09:35:25;;;;;;;4.22;1.77;;;;;;;;;;4149717;34;20515;-69
2021/09/12 09:37:52;;;;;;;4.90;2.03;;;;;;;;;;4150714;34;20146;-72
2021/09/12 09:40:18;;;;;;;7.35;4.18;;;;;;;;;;4146224;34;20142;-72
2021/09/12 09:42:45;;;;;;;8.43;3.05;;;;;;;;;;4150590;34;20108;-69
2021/09/12 09:45:14;;;;;;;10.43;3.78;;;;;;;;;;4150643;34;20138;-73
2021/09/12 09:47:42;;;;;;;7.50;3.80;;;;;;;;;;4150630;34;20119;-72
2021/09/12 09:50:18;;;;;;;4.65;2.80;;;;;;;;;;4141958;34;20111;-72
2021/09/12 09:52:46;;;;;;;3.58;1.75;;;;;;;;;;4141429;34;20184;-70
2021/09/12 09:55:15;;;;;;;3.87;1.95;;;;;;;;;;4151437;34;20284;-72
2021/09/12 09:57:43;;;;;;;4.97;2.00;;;;;;;;;;4144656;34;20138;-69
2021/09/12 10:00:09;;;;;;;7.50;3.25;;;;;;;;;;4150702;34;20103;-70
2021/09/12 10:02:35;;;;;;;9.73;2.33;;;;;;;;;;4149544;34;20502;-71
2021/09/12 10:05:05;;;;;;;7.78;2.28;;;;;;;;;;4151008;34;20099;-72
2021/09/12 10:07:31;;;;;;;2.42;1.95;;;;;;;;;;4150619;34;20538;-72
2021/09/12 10:09:57;;;;;;;3.33;1.87;;;;;;;;;;4150832;34;20122;-71
2021/09/12 10:12:23;;;;;;;2.97;1.77;;;;;;;;;;4149064;34;20185;-71
2021/09/12 10:14:54;;;;;;;2.97;2.10;;;;;;;;;;4149386;34;20527;-71
2021/09/12 10:17:21;;;;;;;4.03;2.20;;;;;;;;;;4149394;34;20208;-72
2021/09/12 10:19:46;;;;;;;3.47;2.30;;;;;;;;;;4149241;34;20196;-71
2021/09/12 10:22:14;;;;;;;4.18;2.50;;;;;;;;;;4150414;34;20126;-71
2021/09/12 10:25:02;;;;;;;7.78;2.80;;;;;;;;;;4150650;34;20110;-71
2021/09/12 10:27:34;;;;;;;2.67;2.08;;;;;;;;;;4150458;34;20206;-71
2021/09/12 10:30:16;;;;;;;4.25;2.22;;;;;;;;;;4146706;34;20468;-70
2021/09/12 10:32:42;;;;;;;5.90;2.47;;;;;;;;;;4149494;34;20130;-71
2021/09/12 10:35:21;;;;;;;2.37;1.75;;;;;;;;;;4144184;34;20111;-71
2021/09/12 10:38:00;;;;;;;5.47;2.97;;;;;;;;;;4137236;34;20091;-68
2021/09/12 10:40:48;;;;;;;4.30;1.77;;;;;;;;;;4135587;34;20116;-72
2021/09/12 10:43:26;;;;;;;7.32;3.85;;;;;;;;;;4137245;34;20113;-74
2021/09/12 10:46:01;;;;;;;4.78;2.10;;;;;;;;;;4136988;34;20122;-72
2021/09/12 10:48:37;;;;;;;2.50;1.65;;;;;;;;;;4142806;34;20132;-73
2021/09/12 10:51:14;;;;;;;7.20;1.90;;;;;;;;;;4160264;34;20544;-71
2021/09/12 10:53:43;;;;;;;1.95;1.70;;;;;;;;;;4141334;34;20131;-71
2021/09/12 10:56:29;;;;;;;2.85;1.87;;;;;;;;;;4149341;34;20135;-70
2021/09/12 10:59:10;;;;;;;2.00;1.80;;;;;;;;;;4146276;34;20506;-70
2021/09/12 11:01:42;;;;;;;2.78;2.00;;;;;;;;;;4136978;34;20543;-72
2021/09/12 11:04:10;;;;;;;7.97;2.90;;;;;;;;;;4127637;34;20099;-69
2021/09/12 11:06:37;;;;;;;2.85;2.03;;;;;;;;;;4136811;34;20127;-74
2021/09/12 11:09:05;;;;;;;4.00;2.45;;;;;;;;;;4148465;34;20118;-74
2021/09/12 11:11:31;;;;;;;4.10;1.98;;;;;;;;;;4145902;34;20140;-75
2021/09/12 11:13:58;;;;;;;3.70;2.60;;;;;;;;;;4147847;34;20460;-76
2021/09/12 11:16:24;;;;;;;6.90;2.65;;;;;;;;;;4148971;34;20099;-72
2021/09/12 11:19:00;;;;;;;2.10;1.90;;;;;;;;;;4148416;34;20118;-72
2021/09/12 11:21:35;;;;;;;3.78;2.05;;;;;;;;;;4150413;34;20125;-72
2021/09/12 11:24:01;;;;;;;6.55;2.60;;;;;;;;;;4149980;34;20116;-76
2021/09/12 11:26:28;;;;;;;3.62;2.22;;;;;;;;;;4150720;34;20127;-77
2021/09/12 11:29:05;;;;;;;5.47;2.53;;;;;;;;;;4145309;34;20526;-74
2021/09/12 11:31:33;;;;;;;2.58;1.95;;;;;;;;;;4125077;34;20115;-78
2021/09/12 11:33:59;;;;;;;3.28;2.10;;;;;;;;;;4137007;34;20192;-74
2021/09/12 11:36:24;;;;;;;3.20;2.08;;;;;;;;;;4136923;34;20119;-75
2021/09/12 11:38:57;;;;;;;2.53;1.92;;;;;;;;;;4136587;34;20208;-73
2021/09/12 11:41:24;;;;;;;2.22;1.70;;;;;;;;;;4136515;34;20571;-74
2021/09/12 11:43:57;;;;;;;2.12;1.70;;;;;;;;;;4136949;34;20099;-77
2021/09/12 11:46:24;;;;;;;3.40;1.73;;;;;;;;;;4135630;34;20187;-75
2021/09/12 11:48:53;;;;;;;2.45;1.80;;;;;;;;;;4135294;34;20437;-72
2021/09/12 11:51:32;;;;;;;2.00;1.58;;;;;;;;;;4136054;34;20132;-75
2021/09/12 11:54:08;;;;;;;2.80;1.83;;;;;;;;;;4134514;34;20520;-71
2021/09/12 11:56:35;;;;;;;3.42;1.95;;;;;;;;;;4136781;34;20464;-71
2021/09/12 11:59:01;;;;;;;1.65;1.42;;;;;;;;;;4136644;34;20561;-71
2021/09/12 12:01:27;;;;;;;4.30;2.47;;;;;;;;;;4124139;34;20117;-69
2021/09/12 12:03:53;;;;;;;1.30;1.20;;;;;;;;;;4134994;34;20123;-69
2021/09/12 12:06:18;;;;;;;2.53;1.92;;;;;;;;;;4135143;34;20240;-71
2021/09/12 12:09:04;;;;;;;6.00;1.70;;;;;;;;;;4135145;34;20111;-77
2021/09/12 12:11:30;;;;;;;2.00;1.80;;;;;;;;;;4136438;34;20126;-75
2021/09/12 12:13:56;;;;;;;5.97;1.87;;;;;;;;;;4124265;34;20455;-75
2021/09/12 12:16:21;;;;;;;4.30;1.75;;;;;;;;;;4135821;34;21966;-73
2021/09/12 12:19:03;;;;;;;5.55;1.60;;;;;;;;;;4134865;34;20505;-76
2021/09/12 12:21:30;;;;;;;2.28;1.62;;;;;;;;;;4136382;34;20220;-73
2021/09/12 12:23:56;;;;;;;2.28;1.80;;;;;;;;;;4136290;34;20114;-75
2021/09/12 12:26:23;;;;;;;3.55;1.87;;;;;;;;;;4136192;34;20231;-75
2021/09/12 12:28:56;;;;;;;11.20;2.42;;;;;;;;;;4137792;34;20460;-73
2021/09/12 12:31:22;;;;;;;4.70;2.28;;;;;;;;;;4148142;34;20161;-68
2021/09/12 12:33:48;;;;;;;3.90;2.08;;;;;;;;;;4148151;34;20519;-68
2021/09/12 12:36:16;;;;;;;9.35;2.60;;;;;;;;;;4149445;34;20111;-69
2021/09/12 12:38:42;;;;;;;2.62;2.00;;;;;;;;;;4149516;34;20158;-65
2021/09/12 12:41:10;;;;;;;3.47;2.15;;;;;;;;;;4149370;34;20608;-75
2021/09/12 12:43:36;;;;;;;3.85;2.28;;;;;;;;;;4149640;34;20130;-74
2021/09/12 12:46:02;;;;;;;5.15;2.15;;;;;;;;;;4147265;34;20203;-78
2021/09/12 12:48:28;;;;;;;1.95;1.40;;;;;;;;;;4146451;34;20124;-74
2021/09/12 12:50:54;;;;;;;2.80;1.65;;;;;;;;;;4147415;34;20143;-75
2021/09/12 12:53:44;;;;;;;1.87;1.60;;;;;;;;;;4147466;34;20130;-73
2021/09/12 12:56:14;;;;;;;4.10;1.83;;;;;;;;;;4147237;34;20130;-74
2021/09/12 12:58:40;;;;;;;5.15;1.90;;;;;;;;;;4145970;34;20121;-72
2021/09/12 13:01:07;;;;;;;1.98;1.58;;;;;;;;;;4147966;34;20131;-73
2021/09/12 13:03:33;;;;;;;1.80;1.45;;;;;;;;;;4148201;34;20111;-73
2021/09/12 13:06:05;;;;;;;3.67;1.65;;;;;;;;;;4149994;34;20475;-71
2021/09/12 13:08:32;;;;;;;2.20;1.83;;;;;;;;;;4149260;34;20127;-71
2021/09/12 13:10:58;;;;;;;2.03;1.85;;;;;;;;;;4148965;34;20134;-75
2021/09/12 13:13:24;;;;;;;5.47;2.08;;;;;;;;;;4149088;34;20517;-73
2021/09/12 13:15:50;;;;;;;1.98;1.62;;;;;;;;;;4136926;34;20103;-76
2021/09/12 13:18:16;;;;;;;1.70;1.60;;;;;;;;;;4147435;34;20126;-69
2021/09/12 13:20:43;;;;;;;5.57;2.00;;;;;;;;;;4147494;34;20528;-69
2021/09/12 13:23:09;;;;;;;2.25;1.65;;;;;;;;;;4148892;34;20118;-70
2021/09/12 13:25:35;;;;;;;3.92;1.75;;;;;;;;;;4147521;34;20126;-70
2021/09/12 13:28:01;;;;;;;4.37;2.17;;;;;;;;;;4150135;34;20103;-70
2021/09/12 13:30:27;;;;;;;1.52;1.42;;;;;;;;;;4151254;34;20122;-70
2021/09/12 13:32:53;;;;;;;19.17;2.83;;;;;;;;;;4149710;34;20545;-73
2021/09/12 13:35:19;;;;;;;3.10;1.80;;;;;;;;;;4151088;34;20133;-72
2021/09/12 13:37:45;;;;;;;4.72;1.90;;;;;;;;;;4138662;34;20108;-71
2021/09/12 13:40:12;;;;;;;6.25;2.67;;;;;;;;;;4150962;34;20119;-73
2021/09/12 13:42:38;;;;;;;6.72;3.58;;;;;;;;;;4150849;34;20118;-73
2021/09/12 13:45:05;;;;;;;6.45;4.50;;;;;;;;;;4151142;34;20117;-71
2021/09/12 13:47:30;;;;;;;5.50;4.05;;;;;;;;;;4150977;34;20114;-72
2021/09/12 13:49:56;;;;;;;12.23;8.45;;;;;;;;;;4149523;34;20123;-73
2021/09/12 13:52:23;;;;;;;14.27;8.50;;;;;;;;;;4151186;34;20170;-71
2021/09/12 13:54:49;;;;;;;9.73;7.53;;;;;;;;;;4151164;34;20091;-73
2021/09/12 13:57:15;;;;;;;13.02;8.95;;;;;;;;;;4151462;34;20188;-77
2021/09/12 13:59:41;;;;;;;6.07;4.95;;;;;;;;;;4150842;34;20120;-71
2021/09/12 14:02:07;;;;;;;7.05;5.28;;;;;;;;;;4150627;34;20161;-68
2021/09/12 14:04:34;;;;;;;6.70;4.50;;;;;;;;;;4138184;34;20127;-68
2021/09/12 14:07:00;;;;;;;4.93;4.18;;;;;;;;;;4150827;34;20125;-67
2021/09/12 14:09:26;;;;;;;6.43;4.68;;;;;;;;;;4150846;34;20111;-68
2021/09/12 14:11:52;;;;;;;5.65;3.90;;;;;;;;;;4150765;34;20111;-69
2021/09/12 14:14:20;;;;;;;8.68;4.25;;;;;;;;;;4150620;34;20126;-68
2021/09/12 14:16:46;;;;;;;7.82;3.55;;;;;;;;;;4150538;34;20535;-68
2021/09/12 14:19:12;;;;;;;8.35;3.35;;;;;;;;;;4150573;34;20201;-69
2021/09/12 14:21:37;;;;;;;5.78;3.45;;;;;;;;;;4150253;34;20131;-69
2021/09/12 14:24:04;;;;;;;11.48;3.47;;;;;;;;;;4149147;34;20452;-68
2021/09/12 14:26:30;;;;;;;8.50;5.30;;;;;;;;;;4150663;34;20463;-68
2021/09/12 14:28:56;;;;;;;13.23;5.43;;;;;;;;;;4149465;34;20122;-68
2021/09/12 14:31:22;;;;;;;17.67;7.32;;;;;;;;;;4150340;34;20235;-68
2021/09/12 14:33:49;;;;;;;8.85;4.93;;;;;;;;;;4150642;34;20134;-68
2021/09/12 14:36:15;;;;;;;7.60;4.47;;;;;;;;;;4150396;34;20580;-70
2021/09/12 14:38:41;;;;;;;8.65;5.15;;;;;;;;;;4150306;34;20135;-70
2021/09/12 14:41:08;;;;;;;8.18;5.47;;;;;;;;;;4150387;34;20227;-72
2021/09/12 14:43:34;;;;;;;12.35;6.60;;;;;;;;;;4150735;34;20499;-72
2021/09/12 14:46:00;;;;;;;12.55;6.18;;;;;;;;;;4149152;34;20179;-72
2021/09/12 14:48:26;;;;;;;9.65;6.03;;;;;;;;;;4148988;34;20099;-71
2021/09/12 14:50:52;;;;;;;8.15;6.00;;;;;;;;;;4150427;34;20532;-66
2021/09/12 14:53:18;;;;;;;13.80;7.78;;;;;;;;;;4150459;34;20103;-68
2021/09/12 14:55:43;;;;;;;18.25;8.05;;;;;;;;;;4150302;34;20204;-67
2021/09/12 14:58:09;;;;;;;18.10;7.12;;;;;;;;;;4149151;34;20133;-74
2021/09/12 15:00:35;;;;;;;15.57;9.48;;;;;;;;;;4149072;34;20234;-73